createdAt,value
2023-05-10T00:01:18.049Z,3.9
2023-05-10T00:08:50.501Z,3.9
2023-05-10T00:16:22.978Z,3.9
2023-05-10T00:23:55.450Z,3.9
2023-05-10T00:31:27.956Z,3.9
2023-05-10T00:39:00.405Z,3.9
2023-05-10T00:46:32.854Z,3.9
2023-05-10T00:54:05.257Z,3.9
2023-05-10T01:01:37.775Z,3.9
2023-05-10T01:09:10.298Z,3.9
2023-05-10T01:16:42.715Z,3.9
2023-05-10T01:24:15.164Z,3.9
2023-05-10T01:31:47.673Z,3.9
2023-05-10T01:39:20.123Z,3.9
2023-05-10T01:46:52.629Z,3.9
2023-05-10T01:54:25.103Z,3.9
2023-05-10T02:01:57.534Z,3.9
2023-05-10T02:09:29.967Z,3.9
2023-05-10T02:17:02.490Z,3.9
2023-05-10T02:24:34.983Z,3.9
2023-05-10T02:32:07.491Z,3.9
2023-05-10T02:39:40.013Z,3.9
2023-05-10T02:47:12.422Z,3.9
2023-05-10T02:54:44.846Z,3.9
2023-05-10T03:02:17.265Z,3.9
2023-05-10T03:09:49.672Z,3.9
2023-05-10T03:17:22.161Z,3.9
2023-05-10T03:24:54.588Z,3.9
2023-05-10T03:32:27.049Z,3.9
2023-05-10T03:39:59.492Z,3.9
2023-05-10T03:47:31.929Z,3.9
2023-05-10T03:55:04.363Z,4.1
2023-05-10T03:57:36.745Z,54.2
2023-05-10T03:58:24.147Z,53.5
2023-05-10T03:59:11.559Z,53.6
2023-05-10T03:59:58.964Z,53.1
2023-05-10T04:00:46.399Z,52.8
2023-05-10T04:01:33.839Z,52.6
2023-05-10T04:02:21.324Z,53.1
2023-05-10T04:03:08.849Z,53.4
2023-05-10T04:03:56.365Z,3.9
2023-05-10T04:11:28.844Z,3.9
2023-05-10T04:19:01.343Z,3.9
2023-05-10T04:19:53.871Z,55.1
2023-05-10T04:20:41.318Z,53.8
2023-05-10T04:21:28.729Z,53.3
2023-05-10T04:22:16.132Z,53.3
2023-05-10T04:23:03.568Z,52.9
2023-05-10T04:23:50.999Z,53.5
2023-05-10T04:24:38.399Z,53.6
2023-05-10T04:25:25.829Z,53.4
2023-05-10T04:26:13.239Z,53.5
2023-05-10T04:27:00.639Z,53.5
2023-05-10T04:27:48.173Z,53.0
2023-05-10T04:28:35.607Z,53.1
2023-05-10T04:29:23.029Z,53.1
2023-05-10T04:30:10.457Z,53.4
2023-05-10T04:30:57.889Z,53.2
2023-05-10T04:31:45.328Z,52.8
2023-05-10T04:32:32.792Z,52.4
2023-05-10T04:33:20.247Z,53.0
2023-05-10T04:34:07.681Z,53.1
2023-05-10T04:34:55.088Z,53.0
2023-05-10T04:35:42.514Z,53.0
2023-05-10T04:36:29.938Z,52.9
2023-05-10T04:37:17.388Z,53.1
2023-05-10T04:38:04.809Z,52.7
2023-05-10T04:38:52.202Z,53.0
2023-05-10T04:39:42.058Z,53.4
2023-05-10T04:40:29.771Z,53.2
2023-05-10T04:41:17.193Z,52.8
2023-05-10T04:42:04.882Z,54.8
2023-05-10T04:42:52.284Z,58.9
2023-05-10T04:43:39.754Z,58.4
2023-05-10T04:44:27.343Z,58.7
2023-05-10T04:45:14.810Z,59.3
2023-05-10T04:46:02.385Z,59.0
2023-05-10T04:46:50.036Z,58.8
2023-05-10T04:47:37.526Z,58.6
2023-05-10T04:48:24.977Z,58.2
2023-05-10T04:49:12.401Z,58.7
2023-05-10T04:49:59.786Z,59.0
2023-05-10T04:50:47.189Z,59.1
2023-05-10T04:51:34.606Z,58.8
2023-05-10T04:52:22.028Z,58.9
2023-05-10T04:53:09.718Z,59.0
2023-05-10T04:54:06.019Z,59.4
2023-05-10T04:54:54.110Z,59.9
2023-05-10T04:55:41.517Z,59.8
2023-05-10T04:56:28.957Z,58.8
2023-05-10T04:57:16.364Z,58.6
2023-05-10T04:58:03.810Z,58.0
2023-05-10T04:58:51.235Z,58.6
2023-05-10T04:59:38.656Z,58.5
2023-05-10T05:00:26.091Z,58.9
2023-05-10T05:01:13.564Z,59.6
2023-05-10T05:02:01.113Z,59.6
2023-05-10T05:02:48.647Z,59.9
2023-05-10T05:03:36.284Z,60.3
2023-05-10T05:04:23.862Z,59.9
2023-05-10T05:05:11.590Z,59.8
2023-05-10T05:05:59.095Z,60.1
2023-05-10T05:06:47.115Z,59.9
2023-05-10T05:07:34.567Z,59.8
2023-05-10T05:08:22.092Z,60.6
2023-05-10T05:09:10.157Z,61.5
2023-05-10T05:09:57.627Z,61.0
2023-05-10T05:10:45.184Z,63.2
2023-05-10T05:11:32.687Z,61.9
2023-05-10T05:12:20.119Z,62.0
2023-05-10T05:13:07.591Z,64.5
2023-05-10T05:13:55.456Z,66.1
2023-05-10T05:14:42.906Z,62.1
2023-05-10T05:15:30.358Z,62.7
2023-05-10T05:16:17.897Z,69.0
2023-05-10T05:17:05.371Z,65.9
2023-05-10T05:17:53.095Z,61.6
2023-05-10T05:18:40.575Z,64.5
2023-05-10T05:19:28.140Z,65.2
2023-05-10T05:20:15.749Z,64.6
2023-05-10T05:21:03.844Z,67.9
2023-05-10T05:21:51.251Z,62.1
2023-05-10T05:22:38.721Z,65.0
2023-05-10T05:23:26.137Z,67.8
2023-05-10T05:24:13.621Z,70.8
2023-05-10T05:25:01.068Z,71.7
2023-05-10T05:25:48.535Z,64.2
2023-05-10T05:26:35.977Z,59.9
2023-05-10T05:27:23.452Z,58.4
2023-05-10T05:28:11.536Z,57.4
2023-05-10T05:28:59.004Z,58.4
2023-05-10T05:29:46.452Z,57.5
2023-05-10T05:30:34.384Z,57.6
2023-05-10T05:31:21.870Z,57.5
2023-05-10T05:32:09.538Z,58.3
2023-05-10T05:32:57.120Z,58.1
2023-05-10T05:33:44.608Z,57.9
2023-05-10T05:34:32.492Z,57.9
2023-05-10T05:35:19.923Z,57.4
2023-05-10T05:36:07.378Z,58.2
2023-05-10T05:36:54.810Z,58.0
2023-05-10T05:37:42.260Z,57.6
2023-05-10T05:38:29.671Z,58.3
2023-05-10T05:39:17.118Z,59.0
2023-05-10T05:40:04.556Z,57.8
2023-05-10T05:40:51.977Z,57.6
2023-05-10T05:41:39.388Z,57.1
2023-05-10T05:42:26.808Z,57.8
2023-05-10T05:43:14.216Z,58.5
2023-05-10T05:44:01.692Z,64.1
2023-05-10T05:44:49.141Z,62.6
2023-05-10T05:45:36.612Z,63.4
2023-05-10T05:46:24.120Z,62.1
2023-05-10T05:47:11.579Z,60.4
2023-05-10T05:47:59.597Z,60.1
2023-05-10T05:48:47.231Z,64.0
2023-05-10T05:49:34.902Z,65.2
2023-05-10T05:50:22.312Z,63.0
2023-05-10T05:51:09.725Z,66.0
2023-05-10T05:51:57.142Z,66.2
2023-05-10T05:52:44.567Z,69.8
2023-05-10T05:53:32.481Z,72.3
2023-05-10T05:54:19.908Z,68.2
2023-05-10T05:55:07.356Z,65.0
2023-05-10T05:55:54.808Z,58.5
2023-05-10T05:56:42.426Z,59.5
2023-05-10T05:57:29.872Z,61.3
2023-05-10T05:58:17.365Z,59.3
2023-05-10T05:59:04.783Z,59.5
2023-05-10T05:59:52.192Z,62.4
2023-05-10T06:00:39.643Z,60.9
2023-05-10T06:01:27.114Z,60.3
2023-05-10T06:02:14.632Z,58.5
2023-05-10T06:03:02.163Z,58.3
2023-05-10T06:03:51.016Z,57.5
2023-05-10T06:04:41.595Z,57.3
2023-05-10T06:05:31.938Z,59.4
2023-05-10T06:06:19.394Z,59.1
2023-05-10T06:07:06.836Z,57.2
2023-05-10T06:07:54.476Z,58.4
2023-05-10T06:08:41.999Z,57.9
2023-05-10T06:09:29.615Z,60.4
2023-05-10T06:10:17.074Z,60.1
2023-05-10T06:11:04.529Z,61.9
2023-05-10T06:11:51.968Z,61.7
2023-05-10T06:12:39.421Z,58.4
2023-05-10T06:13:27.037Z,60.0
2023-05-10T06:14:14.584Z,59.5
2023-05-10T06:15:02.185Z,60.2
2023-05-10T06:15:49.622Z,60.1
2023-05-10T06:16:37.068Z,61.4
2023-05-10T06:17:24.523Z,60.5
2023-05-10T06:18:12.017Z,60.5
2023-05-10T06:18:59.465Z,60.8
2023-05-10T06:19:46.874Z,62.7
2023-05-10T06:20:34.314Z,62.2
2023-05-10T06:21:21.851Z,57.9
2023-05-10T06:22:09.314Z,65.1
2023-05-10T06:22:56.778Z,58.8
2023-05-10T06:23:44.192Z,58.2
2023-05-10T06:24:31.605Z,58.9
2023-05-10T06:25:19.295Z,59.0
2023-05-10T06:26:06.864Z,61.6
2023-05-10T06:26:54.303Z,56.8
2023-05-10T06:27:41.755Z,60.5
2023-05-10T06:28:29.664Z,61.0
2023-05-10T06:29:17.100Z,60.5
2023-05-10T06:30:12.260Z,58.5
2023-05-10T06:31:00.563Z,60.9
2023-05-10T06:31:48.084Z,63.5
2023-05-10T06:32:35.585Z,63.5
2023-05-10T06:33:23.032Z,63.2
2023-05-10T06:34:10.440Z,63.3
2023-05-10T06:34:57.847Z,63.2
2023-05-10T06:35:45.305Z,63.5
2023-05-10T06:36:32.786Z,63.6
2023-05-10T06:37:20.235Z,63.2
2023-05-10T06:38:07.702Z,63.4
2023-05-10T06:38:55.300Z,64.0
2023-05-10T06:39:43.244Z,63.5
2023-05-10T06:40:30.695Z,64.0
2023-05-10T06:41:18.112Z,61.8
2023-05-10T06:42:05.545Z,63.8
2023-05-10T06:42:53.562Z,63.3
2023-05-10T06:43:41.159Z,63.8
2023-05-10T06:44:28.567Z,63.8
2023-05-10T06:45:16.381Z,62.6
2023-05-10T06:46:04.116Z,60.9
2023-05-10T06:46:51.673Z,60.9
2023-05-10T06:47:39.632Z,60.9
2023-05-10T06:48:27.165Z,61.1
2023-05-10T06:49:14.968Z,61.2
2023-05-10T06:50:02.454Z,61.1
2023-05-10T06:50:49.959Z,60.8
2023-05-10T06:51:37.424Z,60.6
2023-05-10T06:52:24.864Z,61.4
2023-05-10T06:53:12.315Z,62.9
2023-05-10T06:53:59.930Z,62.9
2023-05-10T06:54:47.350Z,62.4
2023-05-10T06:55:35.233Z,61.8
2023-05-10T06:56:22.755Z,62.8
2023-05-10T06:57:23.321Z,63.1
2023-05-10T06:58:07.635Z,62.3
2023-05-10T06:58:55.108Z,63.7
2023-05-10T06:59:42.567Z,61.9
2023-05-10T07:00:30.043Z,62.8
2023-05-10T07:01:17.685Z,62.8
2023-05-10T07:02:05.463Z,63.1
2023-05-10T07:02:52.994Z,63.4
2023-05-10T07:03:40.508Z,62.6
2023-05-10T07:04:27.940Z,68.7
2023-05-10T07:05:16.038Z,67.9
2023-05-10T07:06:03.662Z,69.2
2023-05-10T07:06:51.069Z,68.7
2023-05-10T07:07:38.506Z,69.1
2023-05-10T07:08:25.916Z,69.3
2023-05-10T07:09:13.378Z,68.4
2023-05-10T07:10:00.808Z,69.0
2023-05-10T07:10:48.234Z,69.0
2023-05-10T07:11:35.709Z,69.6
2023-05-10T07:12:23.161Z,69.2
2023-05-10T07:13:10.681Z,69.0
2023-05-10T07:13:58.273Z,66.2
2023-05-10T07:14:46.176Z,65.9
2023-05-10T07:15:33.620Z,66.2
2023-05-10T07:16:21.277Z,66.5
2023-05-10T07:17:08.972Z,66.5
2023-05-10T07:17:56.980Z,66.1
2023-05-10T07:18:44.541Z,66.3
2023-05-10T07:19:32.010Z,66.7
2023-05-10T07:20:19.453Z,66.5
2023-05-10T07:21:06.951Z,66.0
2023-05-10T07:21:54.391Z,63.2
2023-05-10T07:22:41.866Z,62.7
2023-05-10T07:23:29.299Z,61.3
2023-05-10T07:24:16.730Z,66.1
2023-05-10T07:25:04.166Z,66.9
2023-05-10T07:25:51.595Z,66.9
2023-05-10T07:26:39.043Z,67.3
2023-05-10T07:27:26.487Z,66.9
2023-05-10T07:28:13.948Z,67.3
2023-05-10T07:29:01.381Z,65.8
2023-05-10T07:29:48.815Z,66.4
2023-05-10T07:30:36.318Z,66.1
2023-05-10T07:31:23.791Z,66.2
2023-05-10T07:32:11.284Z,66.5
2023-05-10T07:32:58.757Z,66.5
2023-05-10T07:33:46.226Z,66.6
2023-05-10T07:34:33.652Z,66.6
2023-05-10T07:35:21.092Z,66.5
2023-05-10T07:36:08.512Z,66.6
2023-05-10T07:36:55.960Z,66.7
2023-05-10T07:37:43.361Z,66.5
2023-05-10T07:38:30.760Z,56.8
2023-05-10T07:39:26.680Z,56.6
2023-05-10T07:40:15.334Z,62.4
2023-05-10T07:41:02.997Z,56.3
2023-05-10T07:41:50.408Z,61.4
2023-05-10T07:42:37.864Z,58.8
2023-05-10T07:43:25.281Z,66.2
2023-05-10T07:44:12.662Z,67.1
2023-05-10T07:45:00.211Z,66.9
2023-05-10T07:45:47.786Z,66.9
2023-05-10T07:46:35.509Z,66.6
2023-05-10T07:47:23.024Z,63.4
2023-05-10T07:48:10.485Z,65.8
2023-05-10T07:48:57.983Z,61.4
2023-05-10T07:49:45.457Z,66.8
2023-05-10T07:50:32.903Z,65.5
2023-05-10T07:51:20.416Z,65.8
2023-05-10T07:52:07.906Z,65.6
2023-05-10T07:52:55.352Z,66.0
2023-05-10T07:53:43.014Z,65.9
2023-05-10T07:54:30.684Z,65.7
2023-05-10T07:55:18.326Z,66.2
2023-05-10T07:56:05.973Z,61.3
2023-05-10T07:56:53.447Z,61.9
2023-05-10T07:57:40.890Z,55.7
2023-05-10T07:58:28.356Z,55.5
2023-05-10T07:59:15.787Z,56.5
2023-05-10T08:00:03.229Z,61.5
2023-05-10T08:00:50.684Z,60.8
2023-05-10T08:01:38.140Z,57.1
2023-05-10T08:02:25.700Z,57.1
2023-05-10T08:03:13.406Z,56.9
2023-05-10T08:04:01.173Z,60.0
2023-05-10T08:04:48.789Z,62.9
2023-05-10T08:05:36.217Z,62.9
2023-05-10T08:06:23.708Z,62.4
2023-05-10T08:07:11.159Z,60.6
2023-05-10T08:07:58.584Z,61.7
2023-05-10T08:08:46.014Z,62.1
2023-05-10T08:09:33.470Z,62.4
2023-05-10T08:10:21.009Z,62.5
2023-05-10T08:11:08.593Z,63.2
2023-05-10T08:11:56.090Z,63.3
2023-05-10T08:12:43.780Z,63.3
2023-05-10T08:13:31.243Z,57.3
2023-05-10T08:14:18.711Z,62.9
2023-05-10T08:15:06.233Z,56.8
2023-05-10T08:15:53.731Z,56.4
2023-05-10T08:16:41.239Z,56.4
2023-05-10T08:17:28.832Z,55.9
2023-05-10T08:18:16.607Z,57.1
2023-05-10T08:19:04.252Z,56.5
2023-05-10T08:19:51.884Z,56.8
2023-05-10T08:20:39.312Z,56.0
2023-05-10T08:21:26.763Z,53.2
2023-05-10T08:22:14.193Z,53.9
2023-05-10T08:23:01.645Z,53.8
2023-05-10T08:23:49.103Z,53.4
2023-05-10T08:24:36.523Z,53.4
2023-05-10T08:25:23.995Z,53.2
2023-05-10T08:26:11.432Z,47.7
2023-05-10T08:26:58.924Z,53.3
2023-05-10T08:27:46.375Z,57.3
2023-05-10T08:28:33.851Z,57.5
2023-05-10T08:29:21.292Z,57.2
2023-05-10T08:30:08.790Z,57.6
2023-05-10T08:30:56.283Z,57.2
2023-05-10T08:31:43.898Z,56.9
2023-05-10T08:32:31.464Z,56.4
2023-05-10T08:33:19.067Z,56.9
2023-05-10T08:34:07.036Z,63.5
2023-05-10T08:34:54.541Z,63.6
2023-05-10T08:35:42.493Z,60.2
2023-05-10T08:36:29.952Z,59.9
2023-05-10T08:37:17.547Z,58.2
2023-05-10T08:38:04.986Z,57.2
2023-05-10T08:38:52.537Z,57.5
2023-05-10T08:39:39.959Z,58.2
2023-05-10T08:40:27.401Z,57.4
2023-05-10T08:41:14.851Z,57.2
2023-05-10T08:42:02.307Z,57.1
2023-05-10T08:42:49.745Z,62.8
2023-05-10T08:43:37.283Z,63.3
2023-05-10T08:44:24.767Z,62.7
2023-05-10T08:45:12.190Z,62.7
2023-05-10T08:45:59.644Z,62.6
2023-05-10T08:46:47.543Z,63.5
2023-05-10T08:47:35.115Z,63.1
2023-05-10T08:48:22.579Z,63.4
2023-05-10T08:49:10.013Z,66.4
2023-05-10T08:49:57.465Z,63.5
2023-05-10T08:50:44.934Z,63.6
2023-05-10T08:51:32.480Z,63.1
2023-05-10T08:52:19.959Z,63.4
2023-05-10T08:53:07.423Z,63.0
2023-05-10T08:53:54.891Z,60.9
2023-05-10T08:54:42.373Z,58.2
2023-05-10T08:55:29.831Z,63.0
2023-05-10T08:56:17.279Z,63.3
2023-05-10T08:57:04.740Z,63.8
2023-05-10T08:57:52.328Z,63.4
2023-05-10T08:58:39.858Z,63.4
2023-05-10T08:59:27.316Z,63.3
2023-05-10T09:00:14.779Z,63.2
2023-05-10T09:01:02.613Z,62.7
2023-05-10T09:01:50.072Z,62.6
2023-05-10T09:02:37.806Z,62.5
2023-05-10T09:03:25.484Z,62.7
2023-05-10T09:04:13.025Z,62.5
2023-05-10T09:05:00.664Z,62.8
2023-05-10T09:05:48.218Z,66.0
2023-05-10T09:06:35.995Z,66.0
2023-05-10T09:07:23.490Z,59.6
2023-05-10T09:08:10.930Z,64.7
2023-05-10T09:08:58.374Z,65.7
2023-05-10T09:09:45.835Z,65.4
2023-05-10T09:10:33.288Z,65.6
2023-05-10T09:11:20.743Z,65.1
2023-05-10T09:12:08.196Z,65.5
2023-05-10T09:12:56.926Z,65.7
2023-05-10T09:13:46.149Z,61.5
2023-05-10T09:14:33.627Z,65.9
2023-05-10T09:15:21.403Z,65.4
2023-05-10T09:16:20.374Z,65.9
2023-05-10T09:17:06.298Z,66.1
2023-05-10T09:17:53.846Z,60.8
2023-05-10T09:18:41.423Z,58.4
2023-05-10T09:19:28.923Z,58.8
2023-05-10T09:20:16.353Z,66.6
2023-05-10T09:21:03.794Z,66.6
2023-05-10T09:21:51.249Z,66.7
2023-05-10T09:22:38.703Z,67.0
2023-05-10T09:23:26.177Z,67.0
2023-05-10T09:24:13.813Z,67.1
2023-05-10T09:25:01.743Z,67.6
2023-05-10T09:25:49.196Z,58.1
2023-05-10T09:26:36.667Z,57.1
2023-05-10T09:27:24.143Z,56.7
2023-05-10T09:28:11.590Z,57.4
2023-05-10T09:28:59.033Z,57.3
2023-05-10T09:29:46.519Z,57.8
2023-05-10T09:30:34.012Z,66.6
2023-05-10T09:31:21.802Z,66.0
2023-05-10T09:32:09.397Z,65.7
2023-05-10T09:32:56.853Z,57.5
2023-05-10T09:33:44.329Z,57.3
2023-05-10T09:34:31.761Z,57.9
2023-05-10T09:35:19.364Z,58.4
2023-05-10T09:36:07.074Z,66.4
2023-05-10T09:36:54.544Z,66.0
2023-05-10T09:37:41.997Z,66.5
2023-05-10T09:38:29.436Z,66.7
2023-05-10T09:39:16.880Z,59.0
2023-05-10T09:40:04.790Z,57.3
2023-05-10T09:40:52.244Z,57.3
2023-05-10T09:41:39.716Z,57.6
2023-05-10T09:42:27.420Z,60.6
2023-05-10T09:43:14.868Z,66.3
2023-05-10T09:44:02.430Z,66.0
2023-05-10T09:44:49.888Z,66.0
2023-05-10T09:45:38.916Z,66.0
2023-05-10T09:46:26.545Z,66.1
2023-05-10T09:47:14.040Z,66.0
2023-05-10T09:48:01.677Z,65.4
2023-05-10T09:48:49.249Z,66.5
2023-05-10T09:49:36.690Z,58.8
2023-05-10T09:50:24.152Z,66.3
2023-05-10T09:51:11.580Z,65.9
2023-05-10T09:51:59.023Z,59.3
2023-05-10T09:52:46.476Z,58.0
2023-05-10T09:53:33.912Z,56.9
2023-05-10T09:54:21.495Z,57.3
2023-05-10T09:55:09.058Z,57.6
2023-05-10T09:55:56.497Z,56.8
2023-05-10T09:56:44.082Z,56.8
2023-05-10T09:57:32.865Z,56.9
2023-05-10T09:58:21.336Z,56.5
2023-05-10T09:59:08.794Z,61.9
2023-05-10T09:59:56.218Z,61.2
2023-05-10T10:00:43.744Z,56.4
2023-05-10T10:01:31.265Z,56.5
2023-05-10T10:02:19.078Z,56.7
2023-05-10T10:03:06.809Z,56.9
2023-05-10T10:03:54.374Z,57.2
2023-05-10T10:04:41.935Z,56.7
2023-05-10T10:05:30.148Z,56.4
2023-05-10T10:06:29.159Z,57.0
2023-05-10T10:07:15.026Z,56.5
2023-05-10T10:08:02.483Z,61.0
2023-05-10T10:08:49.932Z,63.2
2023-05-10T10:09:37.394Z,62.7
2023-05-10T10:10:24.833Z,57.1
2023-05-10T10:11:12.264Z,56.9
2023-05-10T10:11:59.730Z,57.3
2023-05-10T10:12:47.161Z,62.6
2023-05-10T10:13:34.617Z,62.7
2023-05-10T10:14:22.071Z,62.8
2023-05-10T10:15:09.978Z,63.0
2023-05-10T10:15:57.976Z,62.5
2023-05-10T10:16:55.671Z,62.6
2023-05-10T10:17:43.566Z,62.7
2023-05-10T10:18:31.099Z,62.3
2023-05-10T10:19:18.648Z,62.1
2023-05-10T10:20:06.105Z,57.2
2023-05-10T10:20:53.707Z,56.7
2023-05-10T10:21:41.380Z,62.4
2023-05-10T10:22:28.839Z,62.7
2023-05-10T10:23:17.708Z,62.6
2023-05-10T10:24:05.399Z,61.8
2023-05-10T10:24:53.024Z,62.2
2023-05-10T10:25:40.514Z,57.7
2023-05-10T10:26:27.938Z,57.5
2023-05-10T10:27:15.390Z,57.7
2023-05-10T10:28:02.830Z,57.7
2023-05-10T10:28:50.271Z,62.8
2023-05-10T10:29:37.714Z,58.4
2023-05-10T10:30:25.226Z,62.6
2023-05-10T10:31:12.709Z,61.9
2023-05-10T10:32:00.641Z,57.6
2023-05-10T10:32:48.135Z,57.6
2023-05-10T10:33:35.698Z,57.2
2023-05-10T10:34:23.160Z,57.0
2023-05-10T10:35:10.589Z,57.2
2023-05-10T10:35:58.028Z,57.2
2023-05-10T10:36:45.497Z,57.0
2023-05-10T10:37:32.931Z,57.1
2023-05-10T10:38:20.374Z,57.2
2023-05-10T10:39:07.830Z,57.0
2023-05-10T10:39:55.268Z,58.1
2023-05-10T10:40:42.696Z,58.2
2023-05-10T10:41:30.169Z,61.9
2023-05-10T10:42:17.874Z,61.8
2023-05-10T10:43:05.505Z,62.1
2023-05-10T10:43:52.957Z,62.1
2023-05-10T10:44:40.584Z,62.3
2023-05-10T10:45:28.502Z,61.7
2023-05-10T10:46:16.109Z,62.0
2023-05-10T10:47:03.956Z,62.7
2023-05-10T10:47:51.437Z,62.1
2023-05-10T10:48:38.897Z,61.9
2023-05-10T10:49:26.344Z,62.4
2023-05-10T10:50:13.868Z,61.7
2023-05-10T10:51:01.369Z,62.5
2023-05-10T10:51:48.826Z,60.7
2023-05-10T10:52:36.454Z,61.3
2023-05-10T10:53:23.937Z,58.1
2023-05-10T10:54:11.435Z,58.1
2023-05-10T10:54:59.056Z,62.0
2023-05-10T10:55:46.519Z,56.9
2023-05-10T10:56:36.451Z,57.2
2023-05-10T10:57:24.536Z,56.6
2023-05-10T10:58:11.960Z,56.8
2023-05-10T10:58:59.407Z,61.1
2023-05-10T10:59:47.381Z,62.0
2023-05-10T11:00:35.026Z,57.2
2023-05-10T11:01:22.528Z,59.7
2023-05-10T11:02:10.013Z,62.1
2023-05-10T11:02:57.480Z,58.3
2023-05-10T11:03:44.977Z,58.1
2023-05-10T11:04:32.486Z,57.8
2023-05-10T11:05:19.970Z,57.4
2023-05-10T11:06:07.441Z,57.3
2023-05-10T11:06:54.863Z,57.8
2023-05-10T11:07:42.298Z,57.9
2023-05-10T11:08:29.741Z,59.6
2023-05-10T11:09:17.163Z,62.4
2023-05-10T11:10:04.589Z,61.9
2023-05-10T11:10:52.042Z,61.9
2023-05-10T11:11:39.497Z,61.7
2023-05-10T11:12:27.140Z,61.5
2023-05-10T11:13:14.598Z,61.8
2023-05-10T11:14:02.029Z,61.9
2023-05-10T11:14:49.993Z,61.3
2023-05-10T11:15:37.456Z,61.4
2023-05-10T11:16:25.126Z,61.8
2023-05-10T11:17:13.051Z,61.3
2023-05-10T11:18:00.531Z,61.3
2023-05-10T11:18:50.245Z,61.7
2023-05-10T11:19:38.099Z,57.5
2023-05-10T11:20:25.572Z,57.1
2023-05-10T11:21:13.638Z,56.0
2023-05-10T11:22:01.605Z,57.4
2023-05-10T11:22:49.140Z,57.9
2023-05-10T11:23:36.977Z,58.0
2023-05-10T11:24:25.098Z,57.8
2023-05-10T11:25:12.536Z,57.9
2023-05-10T11:25:59.995Z,57.4
2023-05-10T11:26:47.459Z,57.6
2023-05-10T11:27:35.121Z,57.2
2023-05-10T11:28:22.571Z,57.5
2023-05-10T11:29:10.048Z,57.3
2023-05-10T11:29:57.470Z,56.7
2023-05-10T11:30:45.992Z,57.0
2023-05-10T11:31:33.473Z,56.8
2023-05-10T11:32:21.423Z,56.5
2023-05-10T11:33:08.966Z,56.4
2023-05-10T11:33:57.104Z,56.8
2023-05-10T11:34:44.568Z,57.0
2023-05-10T11:35:32.001Z,57.5
2023-05-10T11:36:19.648Z,56.8
2023-05-10T11:37:07.671Z,56.5
2023-05-10T11:37:55.238Z,56.3
2023-05-10T11:38:42.735Z,56.5
2023-05-10T11:39:30.148Z,58.9
2023-05-10T11:40:17.769Z,61.1
2023-05-10T11:41:06.038Z,61.2
2023-05-10T11:41:53.689Z,61.5
2023-05-10T11:42:41.442Z,61.4
2023-05-10T11:43:30.747Z,61.1
2023-05-10T11:44:18.172Z,60.9
2023-05-10T11:45:05.612Z,61.5
2023-05-10T11:45:53.040Z,61.2
2023-05-10T11:46:40.573Z,61.5
2023-05-10T11:47:29.212Z,61.0
2023-05-10T11:48:18.308Z,61.3
2023-05-10T11:49:05.892Z,61.5
2023-05-10T11:49:53.462Z,61.3
2023-05-10T11:50:41.047Z,60.5
2023-05-10T11:51:28.477Z,61.0
2023-05-10T11:52:16.043Z,60.8
2023-05-10T11:53:03.481Z,61.1
2023-05-10T11:53:50.906Z,61.0
2023-05-10T11:54:38.370Z,60.6
2023-05-10T11:55:25.856Z,61.9
2023-05-10T11:56:13.323Z,61.8
2023-05-10T11:57:00.804Z,60.5
2023-05-10T11:57:48.216Z,58.0
2023-05-10T11:58:35.659Z,58.0
2023-05-10T11:59:23.312Z,58.3
2023-05-10T12:00:10.770Z,57.8
2023-05-10T12:00:58.425Z,58.3
2023-05-10T12:01:45.851Z,58.3
2023-05-10T12:02:33.407Z,61.4
2023-05-10T12:03:21.150Z,60.6
2023-05-10T12:04:08.923Z,61.5
2023-05-10T12:04:56.693Z,61.1
2023-05-10T12:05:44.134Z,60.6
2023-05-10T12:06:31.687Z,60.8
2023-05-10T12:07:19.166Z,60.7
2023-05-10T12:08:06.581Z,60.9
2023-05-10T12:08:54.017Z,60.5
2023-05-10T12:09:44.073Z,60.7
2023-05-10T12:10:31.935Z,61.0
2023-05-10T12:11:19.389Z,60.8
2023-05-10T12:12:06.823Z,60.5
2023-05-10T12:12:54.269Z,60.9
2023-05-10T12:13:41.720Z,60.4
2023-05-10T12:14:29.125Z,60.6
2023-05-10T12:15:16.552Z,61.2
2023-05-10T12:16:04.053Z,60.8
2023-05-10T12:16:51.937Z,57.3
2023-05-10T12:17:41.258Z,57.6
2023-05-10T12:18:30.202Z,61.5
2023-05-10T12:19:17.691Z,58.0
2023-05-10T12:20:05.180Z,58.2
2023-05-10T12:20:52.748Z,61.9
2023-05-10T12:21:40.266Z,61.6
2023-05-10T12:22:28.039Z,61.2
2023-05-10T12:23:15.497Z,61.6
2023-05-10T12:24:02.922Z,61.7
2023-05-10T12:24:50.377Z,61.1
2023-05-10T12:25:37.837Z,57.8
2023-05-10T12:26:25.278Z,59.6
2023-05-10T12:28:08.751Z,57.1
2023-05-10T12:28:56.472Z,56.8
2023-05-10T12:29:44.205Z,56.9
2023-05-10T12:30:32.125Z,56.5
2023-05-10T12:31:19.646Z,56.7
2023-05-10T12:32:07.154Z,56.7
2023-05-10T12:32:54.698Z,56.3
2023-05-10T12:33:42.405Z,56.5
2023-05-10T12:34:29.836Z,56.6
2023-05-10T12:35:17.542Z,60.2
2023-05-10T12:36:04.962Z,60.8
2023-05-10T12:36:52.417Z,58.5
2023-05-10T12:37:39.944Z,56.7
2023-05-10T12:38:27.452Z,60.4
2023-05-10T12:39:15.415Z,59.8
2023-05-10T12:40:02.875Z,60.4
2023-05-10T12:40:50.348Z,60.3
2023-05-10T12:41:37.800Z,56.1
2023-05-10T12:42:25.202Z,59.3
2023-05-10T12:43:12.898Z,60.6
2023-05-10T12:44:00.545Z,60.3
2023-05-10T12:44:47.975Z,60.4
2023-05-10T12:45:35.389Z,60.2
2023-05-10T12:46:22.933Z,60.6
2023-05-10T12:47:10.420Z,60.6
2023-05-10T12:47:57.925Z,60.2
2023-05-10T12:48:45.400Z,60.6
2023-05-10T12:49:32.843Z,60.4
2023-05-10T12:50:20.252Z,60.7
2023-05-10T12:51:07.669Z,60.2
2023-05-10T12:51:55.438Z,60.2
2023-05-10T12:53:46.093Z,60.5
2023-05-10T12:54:34.764Z,60.2
2023-05-10T12:55:22.415Z,60.2
2023-05-10T12:56:09.868Z,60.8
2023-05-10T12:56:57.285Z,60.7
2023-05-10T12:57:44.714Z,60.4
2023-05-10T12:58:36.099Z,60.3
2023-05-10T12:59:23.848Z,59.6
2023-05-10T13:00:11.380Z,61.0
2023-05-10T13:00:59.080Z,59.5
2023-05-10T13:01:46.569Z,57.2
2023-05-10T13:02:34.148Z,56.8
2023-05-10T13:03:21.596Z,56.7
2023-05-10T13:04:09.070Z,57.1
2023-05-10T13:04:56.777Z,60.3
2023-05-10T13:05:44.179Z,56.6
2023-05-10T13:06:31.668Z,56.6
2023-05-10T13:07:19.056Z,56.7
2023-05-10T13:08:06.491Z,56.4
2023-05-10T13:08:53.890Z,56.7
2023-05-10T13:09:41.357Z,56.2
2023-05-10T13:10:28.758Z,57.1
2023-05-10T13:11:16.141Z,56.8
2023-05-10T13:12:03.567Z,57.4
2023-05-10T13:12:50.961Z,57.5
2023-05-10T13:13:38.346Z,55.9
2023-05-10T13:14:25.718Z,57.2
2023-05-10T13:15:13.120Z,57.4
2023-05-10T13:16:00.539Z,57.2
2023-05-10T13:16:47.974Z,57.0
2023-05-10T13:17:35.559Z,57.5
2023-05-10T13:18:23.543Z,57.3
2023-05-10T13:19:11.347Z,57.2
2023-05-10T13:19:58.779Z,57.3
2023-05-10T13:20:46.221Z,56.6
2023-05-10T13:21:33.635Z,57.4
2023-05-10T13:22:32.487Z,56.8
2023-05-10T13:23:18.414Z,57.2
2023-05-10T13:24:05.872Z,57.0
2023-05-10T13:24:53.375Z,57.1
2023-05-10T13:25:40.870Z,56.9
2023-05-10T13:26:28.285Z,57.2
2023-05-10T13:27:15.719Z,56.9
2023-05-10T13:28:03.151Z,57.2
2023-05-10T13:28:50.625Z,57.2
2023-05-10T13:29:38.087Z,56.9
2023-05-10T13:30:25.496Z,56.5
2023-05-10T13:31:13.043Z,56.8
2023-05-10T13:32:00.501Z,57.0
2023-05-10T13:32:47.953Z,56.8
2023-05-10T13:33:35.373Z,56.4
2023-05-10T13:34:22.767Z,56.4
2023-05-10T13:35:10.187Z,56.6
2023-05-10T13:35:57.630Z,56.7
2023-05-10T13:36:45.064Z,57.4
2023-05-10T13:37:32.459Z,56.9
2023-05-10T13:38:22.224Z,57.0
2023-05-10T13:39:09.897Z,57.6
2023-05-10T13:39:57.312Z,57.3
2023-05-10T13:40:44.751Z,57.6
2023-05-10T13:41:34.410Z,57.4
2023-05-10T13:42:21.840Z,57.2
2023-05-10T13:43:09.251Z,57.2
2023-05-10T13:43:56.660Z,56.2
2023-05-10T13:44:44.113Z,57.5
2023-05-10T13:45:31.540Z,57.5
2023-05-10T13:46:19.000Z,57.6
2023-05-10T13:47:06.479Z,57.2
2023-05-10T13:47:53.922Z,57.1
2023-05-10T13:48:41.385Z,57.0
2023-05-10T13:49:28.855Z,57.0
2023-05-10T13:50:16.258Z,57.1
2023-05-10T13:51:03.662Z,57.1
2023-05-10T13:51:51.069Z,57.0
2023-05-10T13:52:38.473Z,57.4
2023-05-10T13:53:25.899Z,57.4
2023-05-10T13:54:13.762Z,57.6
2023-05-10T13:55:01.248Z,57.7
2023-05-10T13:55:48.651Z,57.7
2023-05-10T13:56:36.081Z,57.7
2023-05-10T13:57:23.506Z,57.4
2023-05-10T13:58:10.901Z,57.9
2023-05-10T13:58:58.301Z,57.5
2023-05-10T13:59:45.698Z,57.8
2023-05-10T14:00:33.137Z,57.8
2023-05-10T14:01:20.614Z,57.9
2023-05-10T14:02:08.172Z,57.2
2023-05-10T14:02:55.788Z,57.4
2023-05-10T14:03:43.547Z,57.2
2023-05-10T14:04:30.998Z,57.2
2023-05-10T14:05:19.304Z,57.4
2023-05-10T14:06:09.728Z,57.1
2023-05-10T14:06:57.118Z,57.1
2023-05-10T14:07:44.544Z,57.0
2023-05-10T14:08:31.945Z,57.4
2023-05-10T14:09:19.365Z,57.6
2023-05-10T14:10:06.827Z,57.4
2023-05-10T14:10:54.249Z,57.4
2023-05-10T14:11:41.793Z,57.3
2023-05-10T14:12:29.197Z,57.0
2023-05-10T14:13:16.632Z,57.1
2023-05-10T14:14:04.066Z,57.0
2023-05-10T14:14:51.521Z,56.8
2023-05-10T14:15:38.981Z,57.1
2023-05-10T14:16:26.506Z,57.2
2023-05-10T14:17:13.945Z,57.2
2023-05-10T14:18:01.632Z,57.2
2023-05-10T14:18:49.092Z,57.1
2023-05-10T14:19:36.823Z,57.5
2023-05-10T14:20:24.231Z,57.2
2023-05-10T14:21:11.647Z,56.8
2023-05-10T14:21:59.086Z,57.3
2023-05-10T14:22:46.549Z,56.9